createdAt,value
2018-08-24T00:00:40.688Z,15.77
2018-08-24T00:03:44.330Z,14.47
2018-08-24T00:06:48.043Z,14.43
2018-08-24T00:09:52.198Z,14.50
2018-08-24T00:12:55.823Z,14.50
2018-08-24T00:15:59.457Z,14.57
2018-08-24T00:19:03.018Z,14.53
2018-08-24T00:22:06.696Z,14.77
2018-08-24T00:25:10.437Z,14.10
2018-08-24T00:28:14.072Z,15.30
2018-08-24T00:31:17.733Z,13.83
2018-08-24T00:34:21.418Z,14.50
2018-08-24T00:37:25.093Z,14.27
2018-08-24T00:40:28.677Z,14.03
2018-08-24T00:43:32.283Z,15.20
2018-08-24T00:46:35.873Z,14.30
2018-08-24T00:49:39.522Z,15.40
2018-08-24T00:52:43.189Z,14.97
2018-08-24T00:55:46.837Z,13.90
2018-08-24T00:58:50.453Z,14.63
2018-08-24T01:01:54.111Z,14.50
2018-08-24T01:04:57.749Z,14.87
2018-08-24T01:08:07.466Z,14.53
2018-08-24T01:11:10.997Z,14.23
2018-08-24T01:14:14.691Z,14.50
2018-08-24T01:17:23.575Z,14.50
2018-08-24T01:20:30.256Z,13.20
2018-08-24T01:23:34.907Z,14.20
2018-08-24T01:26:38.548Z,12.93
2018-08-24T01:29:43.283Z,12.53
2018-08-24T01:32:46.969Z,12.53
2018-08-24T01:35:50.788Z,12.23
2018-08-24T01:38:54.407Z,12.33
2018-08-24T01:41:58.368Z,12.00
2018-08-24T01:45:01.998Z,12.03
2018-08-24T01:48:05.898Z,9.13
2018-08-24T01:51:09.536Z,6.60
2018-08-24T01:54:13.223Z,4.20
2018-08-24T01:57:16.863Z,3.77
2018-08-24T02:00:20.453Z,3.97
2018-08-24T02:03:24.154Z,3.77
2018-08-24T02:06:27.878Z,3.63
2018-08-24T02:09:31.493Z,3.03
2018-08-24T02:12:40.419Z,3.30
2018-08-24T02:15:45.259Z,3.43
2018-08-24T02:18:53.991Z,3.07
2018-08-24T02:22:02.887Z,3.00
2018-08-24T02:25:06.659Z,3.43
2018-08-24T02:28:10.367Z,2.97
2018-08-24T02:31:14.177Z,3.10
2018-08-24T02:34:17.808Z,3.10
2018-08-24T02:37:21.420Z,3.07
2018-08-24T02:40:25.084Z,2.93
2018-08-24T02:43:28.891Z,3.00
2018-08-24T02:46:32.547Z,3.67
2018-08-24T02:49:36.209Z,3.17
2018-08-24T02:52:39.942Z,3.00
2018-08-24T02:55:43.554Z,3.57
2018-08-24T02:58:47.279Z,2.70
2018-08-24T03:01:51.784Z,3.30
2018-08-24T03:04:55.357Z,3.40
2018-08-24T03:07:58.975Z,3.40
2018-08-24T03:11:02.753Z,4.00
2018-08-24T03:14:06.383Z,3.73
2018-08-24T03:17:15.239Z,3.53
2018-08-24T03:20:18.833Z,3.80
2018-08-24T03:23:22.455Z,3.80
2018-08-24T03:26:26.084Z,4.50
2018-08-24T03:29:29.757Z,4.20
2018-08-24T03:32:33.420Z,4.30
2018-08-24T03:35:37.086Z,3.93
2018-08-24T03:38:40.732Z,4.40
2018-08-24T03:41:44.361Z,4.33
2018-08-24T03:44:47.940Z,4.97
2018-08-24T03:47:51.579Z,5.80
2018-08-24T03:50:55.195Z,5.40
2018-08-24T03:53:58.797Z,6.30
2018-08-24T03:57:02.384Z,6.10
2018-08-24T04:00:06.065Z,6.27
2018-08-24T04:03:09.645Z,7.10
2018-08-24T04:06:13.304Z,7.13
2018-08-24T04:09:17.809Z,6.90
2018-08-24T04:12:21.394Z,6.23
2018-08-24T04:15:25.245Z,5.93
2018-08-24T04:18:28.947Z,6.30
2018-08-24T04:21:32.565Z,6.40
2018-08-24T04:24:36.160Z,6.50
2018-08-24T04:27:40.344Z,6.20
2018-08-24T04:30:43.946Z,6.97
2018-08-24T04:33:47.698Z,6.83
2018-08-24T04:36:51.428Z,6.67
2018-08-24T04:39:55.049Z,6.40
2018-08-24T04:42:58.648Z,6.47
2018-08-24T04:46:02.285Z,6.50
2018-08-24T04:49:06.053Z,6.87
2018-08-24T04:52:09.654Z,6.10
2018-08-24T04:55:13.263Z,7.27
2018-08-24T04:58:16.936Z,6.60
2018-08-24T05:01:20.803Z,6.47
2018-08-24T05:04:24.587Z,7.30
2018-08-24T05:07:28.150Z,6.80
2018-08-24T05:10:31.745Z,7.27
2018-08-24T05:13:35.338Z,7.23
2018-08-24T05:16:38.890Z,6.70
2018-08-24T05:19:42.475Z,7.20
2018-08-24T05:22:46.152Z,7.30
2018-08-24T05:25:49.718Z,7.07
2018-08-24T05:28:53.400Z,6.90
2018-08-24T05:31:56.999Z,6.77
2018-08-24T05:35:00.605Z,7.07
2018-08-24T05:38:04.276Z,6.80
2018-08-24T05:41:07.929Z,7.47
2018-08-24T05:44:11.474Z,7.10
2018-08-24T05:47:15.059Z,7.10
2018-08-24T05:50:18.709Z,7.17
2018-08-24T05:53:22.434Z,6.60
2018-08-24T05:56:26.104Z,7.33
2018-08-24T05:59:29.709Z,7.90
2018-08-24T06:02:33.355Z,7.50
2018-08-24T06:05:41.447Z,7.40
2018-08-24T06:08:45.106Z,7.00
2018-08-24T06:11:48.908Z,8.20
2018-08-24T06:14:52.494Z,7.33
2018-08-24T06:17:57.064Z,7.97
2018-08-24T06:21:00.876Z,8.53
2018-08-24T06:24:04.800Z,7.70
2018-08-24T06:27:08.505Z,8.07
2018-08-24T06:30:12.215Z,8.40
2018-08-24T06:33:16.012Z,8.17
2018-08-24T06:36:19.680Z,7.63
2018-08-24T06:39:23.366Z,8.53
2018-08-24T06:42:26.995Z,8.67
2018-08-24T06:45:30.656Z,8.43
2018-08-24T06:48:34.324Z,7.67
2018-08-24T06:51:38.075Z,7.60
2018-08-24T06:54:41.757Z,7.70
2018-08-24T06:57:45.422Z,7.60
2018-08-24T07:00:49.042Z,6.73
2018-08-24T07:03:53.545Z,7.53
2018-08-24T07:06:57.157Z,8.10
2018-08-24T07:10:00.776Z,7.50
2018-08-24T07:13:04.603Z,8.20
2018-08-24T07:16:08.335Z,8.10
2018-08-24T07:19:11.940Z,7.63
2018-08-24T07:22:15.556Z,7.70
2018-08-24T07:25:19.278Z,7.80
2018-08-24T07:28:22.873Z,8.43
2018-08-24T07:31:26.566Z,9.50
2018-08-24T07:34:30.407Z,9.30
2018-08-24T07:37:34.127Z,9.10
2018-08-24T07:40:37.854Z,10.30
2018-08-24T07:43:41.596Z,10.80
2018-08-24T07:46:45.328Z,8.50
2018-08-24T07:49:49.251Z,10.40
2018-08-24T07:52:52.893Z,10.40
2018-08-24T07:55:56.642Z,10.57
2018-08-24T07:59:01.660Z,9.90
2018-08-24T08:02:05.361Z,11.73
2018-08-24T08:05:09.137Z,10.53
2018-08-24T08:08:12.851Z,11.03
2018-08-24T08:11:16.582Z,10.80
2018-08-24T08:14:20.256Z,11.67
2018-08-24T08:17:23.962Z,11.27
2018-08-24T08:20:27.714Z,10.93
2018-08-24T08:23:31.556Z,12.80
2018-08-24T08:26:35.421Z,12.00
2018-08-24T08:29:44.369Z,14.20
2018-08-24T08:32:48.067Z,13.77
2018-08-24T08:35:51.823Z,15.37
2018-08-24T08:38:55.517Z,17.13
2018-08-24T08:41:59.218Z,16.87
2018-08-24T08:45:02.963Z,17.10
2018-08-24T08:48:06.737Z,17.67
2018-08-24T08:51:10.638Z,17.17
2018-08-24T08:54:14.412Z,18.90
2018-08-24T08:57:18.083Z,20.17
2018-08-24T09:00:21.737Z,20.23
2018-08-24T09:03:25.449Z,19.97
2018-08-24T09:06:29.136Z,21.37
2018-08-24T09:09:32.772Z,20.80
2018-08-24T09:12:36.652Z,21.40
2018-08-24T09:15:40.409Z,19.80
2018-08-24T09:18:49.299Z,22.97
2018-08-24T09:21:58.257Z,22.83
2018-08-24T09:25:07.137Z,20.37
2018-08-24T09:28:15.953Z,17.50
2018-08-24T09:31:23.997Z,18.73
2018-08-24T09:34:27.777Z,16.40
2018-08-24T09:37:36.098Z,16.77
2018-08-24T09:40:44.920Z,16.80
2018-08-24T09:43:53.743Z,15.30
2018-08-24T09:47:02.621Z,14.20
2018-08-24T09:50:12.029Z,14.27
2018-08-24T09:53:20.924Z,13.93
2018-08-24T09:56:24.719Z,13.40
2018-08-24T09:59:28.480Z,13.27
2018-08-24T10:02:44.580Z,12.60
2018-08-24T10:05:53.322Z,12.57
2018-08-24T10:08:57.138Z,11.47
2018-08-24T10:12:00.955Z,11.03
2018-08-24T10:15:06.308Z,9.53
2018-08-24T10:18:10.115Z,8.00
2018-08-24T10:21:13.802Z,8.43
2018-08-24T10:24:17.499Z,9.40
2018-08-24T10:27:21.114Z,8.87
2018-08-24T10:30:25.757Z,8.97
2018-08-24T10:33:29.437Z,7.60
2018-08-24T10:36:33.225Z,6.20
2018-08-24T10:39:36.893Z,6.13
2018-08-24T10:42:40.689Z,5.93
2018-08-24T10:45:44.428Z,5.27
2018-08-24T10:48:48.277Z,5.47
2018-08-24T10:51:51.992Z,5.93
2018-08-24T10:54:55.761Z,5.70
2018-08-24T10:57:59.628Z,5.57
2018-08-24T11:01:03.384Z,5.77
2018-08-24T11:04:07.129Z,5.53
2018-08-24T11:07:10.880Z,4.93
2018-08-24T11:10:14.590Z,5.50
2018-08-24T11:13:18.254Z,4.73
2018-08-24T11:16:21.900Z,4.53
2018-08-24T11:19:25.598Z,5.20
2018-08-24T11:22:29.343Z,4.63
2018-08-24T11:25:33.027Z,4.93
2018-08-24T11:28:36.855Z,4.60
2018-08-24T11:31:40.584Z,4.27
2018-08-24T11:34:44.360Z,4.80
2018-08-24T11:37:48.103Z,4.60
2018-08-24T11:40:51.719Z,3.90
2018-08-24T11:43:55.403Z,4.47
2018-08-24T11:46:59.060Z,3.87
2018-08-24T11:50:02.746Z,3.50
2018-08-24T11:53:06.769Z,3.90
2018-08-24T11:56:10.405Z,3.03
2018-08-24T11:59:14.059Z,3.43
2018-08-24T12:02:17.705Z,3.77
2018-08-24T12:05:21.363Z,3.13
2018-08-24T12:08:25.152Z,3.97
2018-08-24T12:11:28.796Z,3.97
2018-08-24T12:14:32.449Z,3.80
2018-08-24T12:17:37.636Z,4.03
2018-08-24T12:20:41.396Z,3.60
2018-08-24T12:23:45.009Z,3.40
2018-08-24T12:26:48.700Z,3.87
2018-08-24T12:29:52.365Z,3.30
2018-08-24T12:32:56.045Z,3.50
2018-08-24T12:35:59.725Z,3.73
2018-08-24T12:39:03.686Z,3.60
2018-08-24T12:42:08.359Z,3.53
2018-08-24T12:45:12.231Z,3.57
2018-08-24T12:48:15.869Z,3.37
2018-08-24T12:51:19.554Z,3.93
2018-08-24T12:54:23.275Z,3.93
2018-08-24T12:57:27.909Z,3.23
2018-08-24T13:00:31.616Z,3.20
2018-08-24T13:03:35.281Z,2.83
2018-08-24T13:06:38.982Z,3.70
2018-08-24T13:09:42.660Z,3.10
2018-08-24T13:12:46.325Z,3.00
2018-08-24T13:15:50.204Z,2.90
2018-08-24T13:18:53.951Z,3.00
2018-08-24T13:21:57.634Z,2.97
2018-08-24T13:25:01.321Z,3.10
2018-08-24T13:28:05.057Z,2.90
2018-08-24T13:31:08.776Z,2.93
2018-08-24T13:34:12.470Z,3.37
2018-08-24T13:37:16.353Z,2.63
2018-08-24T13:40:19.949Z,2.70
2018-08-24T13:43:23.624Z,2.53
2018-08-24T13:46:27.533Z,2.50
2018-08-24T13:49:31.207Z,2.63
2018-08-24T13:52:34.873Z,2.60
2018-08-24T13:55:38.642Z,2.20
2018-08-24T13:58:42.288Z,2.80
2018-08-24T14:01:46.138Z,2.73
2018-08-24T14:04:49.795Z,2.40
2018-08-24T14:07:53.550Z,2.70
2018-08-24T14:10:57.215Z,2.50
2018-08-24T14:14:00.895Z,2.83
2018-08-24T14:17:04.615Z,2.33
2018-08-24T14:20:08.525Z,2.83
2018-08-24T14:23:12.159Z,2.70
2018-08-24T14:26:15.980Z,2.83
2018-08-24T14:29:19.866Z,2.37
2018-08-24T14:32:23.549Z,2.83
2018-08-24T14:35:27.240Z,3.03
2018-08-24T14:38:30.975Z,2.90
2018-08-24T14:41:34.734Z,2.83
2018-08-24T14:44:38.416Z,3.10
2018-08-24T14:47:42.355Z,2.57
2018-08-24T14:50:45.939Z,2.93
2018-08-24T14:53:49.896Z,3.20
2018-08-24T14:56:53.549Z,2.63
2018-08-24T14:59:57.321Z,2.60
2018-08-24T15:03:01.002Z,2.40
2018-08-24T15:06:04.676Z,2.67
2018-08-24T15:09:10.357Z,2.47
2018-08-24T15:12:14.011Z,2.63
2018-08-24T15:15:17.676Z,2.47
2018-08-24T15:18:21.387Z,2.50
2018-08-24T15:21:25.006Z,2.80
2018-08-24T15:24:28.740Z,2.80
2018-08-24T15:27:32.357Z,2.90
2018-08-24T15:30:36.012Z,2.80
2018-08-24T15:33:39.697Z,2.50
2018-08-24T15:36:43.364Z,2.73
2018-08-24T15:39:47.041Z,2.80
2018-08-24T15:42:50.748Z,2.50
2018-08-24T15:45:54.441Z,2.80
2018-08-24T15:48:58.092Z,2.53
2018-08-24T15:52:01.726Z,2.50
2018-08-24T15:55:05.415Z,2.87
2018-08-24T15:58:09.291Z,2.60
2018-08-24T16:01:12.946Z,3.10
2018-08-24T16:04:16.575Z,2.70
2018-08-24T16:07:20.246Z,2.83
2018-08-24T16:10:23.903Z,3.00
2018-08-24T16:13:27.562Z,2.70
2018-08-24T16:16:31.325Z,3.53
2018-08-24T16:19:34.972Z,3.53
2018-08-24T16:22:38.672Z,3.13
2018-08-24T16:25:42.497Z,3.20
2018-08-24T16:28:46.342Z,3.40
2018-08-24T16:31:50.203Z,3.10
2018-08-24T16:34:53.837Z,4.13
2018-08-24T16:37:57.511Z,2.93
2018-08-24T16:41:01.797Z,3.07
2018-08-24T16:44:07.970Z,2.70
2018-08-24T16:47:11.844Z,2.77
2018-08-24T16:50:15.711Z,2.80
2018-08-24T16:53:19.372Z,3.00
2018-08-24T16:56:23.122Z,3.00
2018-08-24T16:59:26.846Z,3.00
2018-08-24T17:02:30.551Z,3.07
2018-08-24T17:05:34.233Z,2.67
2018-08-24T17:08:37.864Z,2.90
2018-08-24T17:11:41.810Z,3.10
2018-08-24T17:14:45.457Z,2.70
2018-08-24T17:17:49.193Z,3.53
2018-08-24T17:20:52.798Z,3.40
2018-08-24T17:23:56.402Z,3.50
2018-08-24T17:27:00.134Z,3.10
2018-08-24T17:30:03.870Z,3.10
2018-08-24T17:33:07.678Z,3.17
2018-08-24T17:36:11.453Z,2.90
2018-08-24T17:39:15.171Z,2.80
2018-08-24T17:42:18.916Z,2.90
2018-08-24T17:45:22.693Z,3.00
2018-08-24T17:48:26.341Z,2.70
2018-08-24T17:51:30.218Z,2.77
2018-08-24T17:54:33.903Z,2.90
2018-08-24T17:57:37.611Z,2.70
2018-08-24T18:00:41.339Z,2.70
2018-08-24T18:03:45.091Z,2.90
2018-08-24T18:06:48.752Z,3.33
2018-08-24T18:09:52.434Z,2.90
2018-08-24T18:12:56.058Z,3.13
2018-08-24T18:15:59.703Z,2.60
2018-08-24T18:19:03.422Z,3.00
2018-08-24T18:22:07.172Z,3.63
2018-08-24T18:25:10.926Z,3.07
2018-08-24T18:28:14.557Z,3.50
2018-08-24T18:31:18.188Z,3.23
2018-08-24T18:34:21.924Z,3.30
2018-08-24T18:37:25.588Z,3.10
2018-08-24T18:40:29.285Z,2.70
2018-08-24T18:43:33.129Z,2.70
2018-08-24T18:46:36.765Z,3.10
2018-08-24T18:49:40.489Z,2.97
2018-08-24T18:52:44.374Z,3.00
2018-08-24T18:55:48.138Z,3.37
2018-08-24T18:58:51.976Z,3.10
2018-08-24T19:01:55.729Z,3.13
2018-08-24T19:04:59.461Z,3.23
2018-08-24T19:08:09.129Z,2.80
2018-08-24T19:11:18.109Z,3.23
2018-08-24T19:14:22.004Z,2.83
2018-08-24T19:17:30.934Z,3.37
2018-08-24T19:20:39.682Z,3.33
2018-08-24T19:23:43.432Z,3.23
2018-08-24T19:26:48.177Z,3.27
2018-08-24T19:29:57.104Z,3.10
2018-08-24T19:33:00.864Z,3.30
2018-08-24T19:36:04.582Z,2.97
2018-08-24T19:39:11.762Z,3.10
2018-08-24T19:42:20.548Z,3.00
2018-08-24T19:45:24.307Z,3.10
2018-08-24T19:48:33.095Z,3.40
2018-08-24T19:51:36.784Z,3.50
2018-08-24T19:54:40.508Z,3.60
2018-08-24T19:57:49.538Z,3.53
2018-08-24T20:00:53.352Z,3.03
2018-08-24T20:03:56.999Z,3.17
2018-08-24T20:07:06.074Z,3.17
2018-08-24T20:10:11.343Z,3.00
2018-08-24T20:13:15.128Z,3.33
2018-08-24T20:16:24.050Z,3.40
2018-08-24T20:19:28.353Z,3.23
2018-08-24T20:22:32.025Z,3.27
2018-08-24T20:25:35.748Z,2.93
2018-08-24T20:28:39.517Z,2.83
2018-08-24T20:31:43.196Z,3.13
2018-08-24T20:34:46.952Z,3.20
2018-08-24T20:37:50.633Z,3.10
2018-08-24T20:40:54.391Z,2.90
2018-08-24T20:43:58.053Z,3.30
2018-08-24T20:47:01.887Z,2.87
2018-08-24T20:50:05.588Z,3.40
2018-08-24T20:53:09.385Z,3.87
2018-08-24T20:56:13.026Z,3.10
2018-08-24T20:59:16.803Z,3.10
2018-08-24T21:02:20.447Z,3.30
2018-08-24T21:05:24.078Z,6.80
2018-08-24T21:08:27.812Z,4.57
2018-08-24T21:11:31.503Z,5.67
2018-08-24T21:14:35.332Z,3.73
2018-08-24T21:17:39.114Z,3.00
2018-08-24T21:20:42.825Z,3.00
2018-08-24T21:23:46.689Z,3.10
2018-08-24T21:26:50.604Z,2.93
2018-08-24T21:29:54.415Z,2.80
2018-08-24T21:32:58.176Z,2.43
2018-08-24T21:36:01.848Z,2.70
2018-08-24T21:39:08.790Z,3.00
2018-08-24T21:42:12.779Z,2.30
2018-08-24T21:45:16.547Z,3.03
2018-08-24T21:48:20.219Z,3.00
2018-08-24T21:51:23.861Z,2.80
2018-08-24T21:54:27.546Z,3.03
2018-08-24T21:57:31.263Z,2.97
2018-08-24T22:00:39.172Z,2.67
2018-08-24T22:03:42.766Z,2.70
2018-08-24T22:06:46.531Z,2.70
2018-08-24T22:09:50.164Z,2.50
2018-08-24T22:12:53.795Z,2.60
2018-08-24T22:15:57.529Z,2.80
2018-08-24T22:19:01.538Z,3.17
2018-08-24T22:22:05.491Z,3.13
2018-08-24T22:25:09.214Z,2.70
2018-08-24T22:28:12.930Z,2.80
2018-08-24T22:31:16.536Z,2.80
2018-08-24T22:34:20.320Z,2.33
2018-08-24T22:37:23.981Z,2.97
2018-08-24T22:40:27.630Z,2.70
2018-08-24T22:43:35.811Z,2.43
2018-08-24T22:46:39.431Z,2.83
2018-08-24T22:49:43.086Z,2.40
2018-08-24T22:52:46.680Z,2.87
2018-08-24T22:55:50.551Z,2.80
2018-08-24T22:58:54.218Z,2.77
2018-08-24T23:01:57.937Z,3.13
2018-08-24T23:05:01.548Z,2.50
2018-08-24T23:08:05.324Z,2.20
2018-08-24T23:11:08.949Z,2.87
2018-08-24T23:14:12.725Z,2.40
2018-08-24T23:17:16.540Z,2.67
2018-08-24T23:20:20.144Z,2.97
2018-08-24T23:23:23.824Z,2.30
2018-08-24T23:26:27.554Z,2.60
2018-08-24T23:29:31.243Z,2.30
2018-08-24T23:32:34.984Z,2.80
2018-08-24T23:35:38.644Z,2.47
2018-08-24T23:38:42.304Z,2.90
2018-08-24T23:41:46.139Z,2.60
2018-08-24T23:44:49.816Z,3.00
2018-08-24T23:47:53.429Z,2.63
2018-08-24T23:50:57.140Z,2.93
2018-08-24T23:54:00.845Z,2.90
2018-08-24T23:57:04.520Z,3.00
